Time,TemperatureF,DewpointF,PressureIn,WindDirection,WindDirectionDegrees,WindSpeedMPH,WindSpeedGustMPH,Humidity,HourlyPrecipIn,Conditions,Clouds,dailyrainin,SolarRadiationWatts/m^2,SoftwareType,DateUTC
2013-02-14 00:02:00,71.0,70.0,-100.00,SW,215,3.0,10.0,98,0.00,,,0.01,0.000000,,2013-02-14 05:02:00,
2013-02-14 00:11:00,71.0,70.0,-100.00,SW,215,3.0,10.0,98,0.00,,,0.01,0.000000,,2013-02-14 05:11:00,
2013-02-14 00:42:00,66.0,61.0,-100.00,NNE,26,6.0,16.0,84,0.00,,,0.01,0.000000,,2013-02-14 05:42:00,
2013-02-14 00:52:00,66.0,61.0,-100.00,NNE,26,6.0,16.0,84,0.00,,,0.01,0.000000,,2013-02-14 05:52:00,
2013-02-14 01:11:00,66.0,61.0,-100.00,NNE,26,6.0,16.0,84,0.00,,,0.01,0.000000,,2013-02-14 06:11:00,
2013-02-14 01:42:00,63.0,59.0,-100.00,NE,34,5.0,13.0,88,0.09,,,0.10,0.000000,,2013-02-14 06:42:00,
2013-02-14 01:52:00,63.0,59.0,-100.00,NE,34,5.0,13.0,88,0.09,,,0.10,0.000000,,2013-02-14 06:52:00,
2013-02-14 02:01:00,63.0,59.0,-100.00,NE,34,5.0,13.0,88,0.09,,,0.10,0.000000,,2013-02-14 07:01:00,
2013-02-14 02:11:00,63.0,59.0,-100.00,NE,34,5.0,13.0,88,0.09,,,0.10,0.000000,,2013-02-14 07:11:00,
2013-02-14 02:42:00,63.0,59.0,-100.00,NE,52,5.0,10.0,86,0.00,,,0.10,0.000000,,2013-02-14 07:42:00,
2013-02-14 02:52:00,63.0,59.0,-100.00,NE,52,5.0,10.0,86,0.00,,,0.10,0.000000,,2013-02-14 07:52:00,
2013-02-14 03:01:00,63.0,59.0,-100.00,NE,52,5.0,10.0,86,0.00,,,0.10,0.000000,,2013-02-14 08:01:00,
2013-02-14 03:11:00,63.0,59.0,-100.00,NE,52,5.0,10.0,86,0.00,,,0.10,0.000000,,2013-02-14 08:11:00,
2013-02-14 03:43:00,64.0,59.0,-100.00,ENE,57,5.0,9.0,83,0.00,,,0.10,0.000000,,2013-02-14 08:43:00,
2013-02-14 03:52:00,64.0,59.0,-100.00,ENE,57,5.0,9.0,83,0.00,,,0.10,0.000000,,2013-02-14 08:52:00,
2013-02-14 04:02:00,64.0,59.0,-100.00,ENE,57,5.0,9.0,83,0.00,,,0.10,0.000000,,2013-02-14 09:02:00,
2013-02-14 04:11:00,64.0,59.0,-100.00,ENE,57,5.0,9.0,83,0.00,,,0.10,0.000000,,2013-02-14 09:11:00,
2013-02-14 04:32:00,62.0,59.0,-100.00,ENE,71,6.0,11.0,90,0.08,,,0.18,0.000000,,2013-02-14 09:32:00,
2013-02-14 04:42:00,62.0,59.0,-100.00,ENE,71,6.0,11.0,90,0.08,,,0.18,0.000000,,2013-02-14 09:42:00,
2013-02-14 04:52:00,62.0,59.0,-100.00,ENE,71,6.0,11.0,90,0.08,,,0.18,0.000000,,2013-02-14 09:52:00,
2013-02-14 05:02:00,62.0,59.0,-100.00,ENE,71,6.0,11.0,90,0.08,,,0.18,0.000000,,2013-02-14 10:02:00,
2013-02-14 05:11:00,62.0,59.0,-100.00,ENE,71,6.0,11.0,90,0.08,,,0.18,0.000000,,2013-02-14 10:11:00,
2013-02-14 05:42:00,62.0,58.0,-100.00,East,101,6.0,14.0,86,0.00,,,0.18,0.000000,,2013-02-14 10:42:00,
2013-02-14 05:52:00,62.0,58.0,-100.00,East,101,6.0,14.0,86,0.00,,,0.18,0.000000,,2013-02-14 10:52:00,
2013-02-14 06:02:00,62.0,58.0,-100.00,East,101,6.0,14.0,86,0.00,,,0.18,0.000000,,2013-02-14 11:02:00,
2013-02-14 06:11:00,62.0,58.0,-100.00,East,101,6.0,14.0,86,0.00,,,0.18,0.000000,,2013-02-14 11:11:00,
2013-02-14 06:42:00,63.0,61.0,-100.00,ENE,63,4.0,9.0,94,0.00,,,0.17,0.000000,,2013-02-14 11:42:00,
2013-02-14 06:52:00,63.0,61.0,-100.00,ENE,63,4.0,9.0,94,0.00,,,0.17,0.000000,,2013-02-14 11:52:00,
2013-02-14 07:02:00,63.0,61.0,-100.00,ENE,63,4.0,9.0,94,0.00,,,0.17,0.000000,,2013-02-14 12:02:00,
2013-02-14 07:12:00,63.0,61.0,-100.00,ENE,63,4.0,9.0,94,0.00,,,0.17,0.000000,,2013-02-14 12:12:00,
2013-02-14 07:42:00,62.0,61.0,-100.00,East,87,6.0,12.0,95,0.01,,,0.18,0.000000,,2013-02-14 12:42:00,
2013-02-14 07:53:00,62.0,61.0,-100.00,East,87,6.0,12.0,95,0.01,,,0.18,0.000000,,2013-02-14 12:53:00,
2013-02-14 08:02:00,62.0,61.0,-100.00,East,87,6.0,12.0,95,0.01,,,0.18,0.000000,,2013-02-14 13:02:00,
2013-02-14 08:11:00,62.0,61.0,-100.00,East,87,6.0,12.0,95,0.01,,,0.18,0.000000,,2013-02-14 13:11:00,
2013-02-14 08:42:00,63.0,62.0,-100.00,East,84,4.0,9.0,95,0.01,,,0.19,20.000000,,2013-02-14 13:42:00,
2013-02-14 08:52:00,63.0,62.0,-100.00,East,84,4.0,9.0,95,0.01,,,0.19,20.000000,,2013-02-14 13:52:00,
2013-02-14 09:01:00,63.0,62.0,-100.00,East,84,4.0,9.0,95,0.01,,,0.19,20.000000,,2013-02-14 14:01:00,
2013-02-14 09:11:00,63.0,62.0,-100.00,East,84,4.0,9.0,95,0.01,,,0.19,20.000000,,2013-02-14 14:11:00,
2013-02-14 09:42:00,65.0,63.0,-100.00,ENE,73,5.0,11.0,94,0.00,,,0.19,95.000000,,2013-02-14 14:42:00,
2013-02-14 09:52:00,65.0,63.0,-100.00,ENE,73,5.0,11.0,94,0.00,,,0.19,95.000000,,2013-02-14 14:52:00,
2013-02-14 10:02:00,65.0,63.0,-100.00,ENE,73,5.0,11.0,94,0.00,,,0.19,95.000000,,2013-02-14 15:02:00,
2013-02-14 10:11:00,65.0,63.0,-100.00,ENE,73,5.0,11.0,94,0.00,,,0.19,95.000000,,2013-02-14 15:11:00,
2013-02-14 10:42:00,66.0,65.0,-100.00,East,91,4.0,8.0,96,0.08,,,0.27,58.000000,,2013-02-14 15:42:00,
2013-02-14 10:52:00,66.0,65.0,-100.00,East,91,4.0,8.0,96,0.08,,,0.27,58.000000,,2013-02-14 15:52:00,
2013-02-14 11:02:00,66.0,65.0,-100.00,East,91,4.0,8.0,96,0.08,,,0.27,58.000000,,2013-02-14 16:02:00,
2013-02-14 11:11:00,66.0,65.0,-100.00,East,91,4.0,8.0,96,0.08,,,0.27,58.000000,,2013-02-14 16:11:00,
2013-02-14 11:42:00,68.0,66.0,-100.00,NE,36,2.0,6.0,93,0.01,,,0.28,145.000000,,2013-02-14 16:42:00,
2013-02-14 11:52:00,68.0,66.0,-100.00,NE,36,2.0,6.0,93,0.01,,,0.28,145.000000,,2013-02-14 16:52:00,
2013-02-14 12:01:00,68.0,66.0,-100.00,NE,36,2.0,6.0,93,0.01,,,0.28,145.000000,,2013-02-14 17:01:00,
2013-02-14 12:11:00,68.0,66.0,-100.00,NE,36,2.0,6.0,93,0.01,,,0.28,145.000000,,2013-02-14 17:11:00,
2013-02-14 12:42:00,72.0,70.0,-100.00,East,79,4.0,8.0,93,0.04,,,0.32,240.000000,,2013-02-14 17:42:00,
2013-02-14 12:52:00,72.0,70.0,-100.00,East,79,4.0,8.0,93,0.04,,,0.32,240.000000,,2013-02-14 17:52:00,
2013-02-14 13:02:00,72.0,70.0,-100.00,East,79,4.0,8.0,93,0.04,,,0.32,240.000000,,2013-02-14 18:02:00,
2013-02-14 13:11:00,72.0,70.0,-100.00,East,79,4.0,8.0,93,0.04,,,0.32,240.000000,,2013-02-14 18:11:00,
2013-02-14 13:42:00,73.0,68.0,-100.00,SE,138,4.0,10.0,85,0.00,,,0.32,372.000000,,2013-02-14 18:42:00,
2013-02-14 13:52:00,73.0,68.0,-100.00,SE,138,4.0,10.0,85,0.00,,,0.32,372.000000,,2013-02-14 18:52:00,
2013-02-14 14:02:00,73.0,68.0,-100.00,SE,138,4.0,10.0,85,0.00,,,0.32,372.000000,,2013-02-14 19:02:00,
2013-02-14 14:11:00,73.0,68.0,-100.00,SE,138,4.0,10.0,85,0.00,,,0.32,372.000000,,2013-02-14 19:11:00,
2013-02-14 14:42:00,65.0,64.0,-100.00,North,6,9.0,18.0,95,0.21,,,0.53,72.000000,,2013-02-14 19:42:00,
2013-02-14 14:52:00,65.0,64.0,-100.00,North,6,9.0,18.0,95,0.21,,,0.53,72.000000,,2013-02-14 19:52:00,
2013-02-14 15:01:00,65.0,64.0,-100.00,North,6,9.0,18.0,95,0.21,,,0.53,72.000000,,2013-02-14 20:01:00,
2013-02-14 15:11:00,65.0,64.0,-100.00,North,6,9.0,18.0,95,0.21,,,0.53,72.000000,,2013-02-14 20:11:00,
2013-02-14 15:42:00,63.0,62.0,-100.00,NNE,14,11.0,26.0,95,0.45,,,0.98,10.000000,,2013-02-14 20:42:00,
2013-02-14 15:52:00,63.0,62.0,-100.00,NNE,14,11.0,26.0,95,0.45,,,0.98,10.000000,,2013-02-14 20:52:00,
2013-02-14 16:02:00,63.0,62.0,-100.00,NNE,14,11.0,26.0,95,0.45,,,0.98,10.000000,,2013-02-14 21:02:00,
2013-02-14 16:11:00,63.0,62.0,-100.00,NNE,14,11.0,26.0,95,0.45,,,0.98,10.000000,,2013-02-14 21:11:00,
2013-02-14 16:42:00,62.0,61.0,-100.00,NNE,19,10.0,25.0,95,0.50,,,1.48,14.000000,,2013-02-14 21:42:00,
2013-02-14 16:52:00,62.0,61.0,-100.00,NNE,19,10.0,25.0,95,0.50,,,1.48,14.000000,,2013-02-14 21:52:00,
2013-02-14 17:02:00,62.0,61.0,-100.00,NNE,19,10.0,25.0,95,0.50,,,1.48,14.000000,,2013-02-14 22:02:00,
2013-02-14 17:11:00,62.0,61.0,-100.00,NNE,19,10.0,25.0,95,0.50,,,1.48,14.000000,,2013-02-14 22:11:00,
2013-02-14 17:42:00,62.0,60.0,-100.00,NNE,17,11.0,22.0,93,0.34,,,1.82,24.000000,,2013-02-14 22:42:00,
2013-02-14 17:52:00,62.0,60.0,-100.00,NNE,17,11.0,22.0,93,0.34,,,1.82,24.000000,,2013-02-14 22:52:00,
2013-02-14 18:01:00,62.0,60.0,-100.00,NNE,17,11.0,22.0,93,0.34,,,1.82,24.000000,,2013-02-14 23:01:00,
2013-02-14 18:11:00,62.0,60.0,-100.00,NNE,17,11.0,22.0,93,0.34,,,1.82,24.000000,,2013-02-14 23:11:00,
2013-02-14 18:42:00,61.0,59.0,-100.00,NNE,18,7.0,17.0,93,0.03,,,1.85,7.000000,,2013-02-14 23:42:00,
2013-02-14 18:52:00,61.0,59.0,-100.00,NNE,18,7.0,17.0,93,0.03,,,1.85,7.000000,,2013-02-14 23:52:00,
2013-02-14 19:02:00,61.0,59.0,-100.00,NNE,18,7.0,17.0,93,0.03,,,1.85,7.000000,,2013-02-15 00:02:00,
2013-02-14 19:11:00,61.0,59.0,-100.00,NNE,18,7.0,17.0,93,0.03,,,1.85,7.000000,,2013-02-15 00:11:00,
2013-02-14 19:42:00,61.0,58.0,-100.00,NNE,21,8.0,19.0,90,0.01,,,1.86,0.000000,,2013-02-15 00:42:00,
2013-02-14 19:52:00,61.0,58.0,-100.00,NNE,21,8.0,19.0,90,0.01,,,1.86,0.000000,,2013-02-15 00:52:00,
2013-02-14 20:02:00,61.0,58.0,-100.00,NNE,21,8.0,19.0,90,0.01,,,1.86,0.000000,,2013-02-15 01:02:00,
2013-02-14 20:11:00,61.0,58.0,-100.00,NNE,21,8.0,19.0,90,0.01,,,1.86,0.000000,,2013-02-15 01:11:00,
2013-02-14 20:42:00,61.0,57.0,-100.00,NE,41,9.0,17.0,88,0.00,,,1.86,0.000000,,2013-02-15 01:42:00,
2013-02-14 20:52:00,61.0,57.0,-100.00,NE,41,9.0,17.0,88,0.00,,,1.86,0.000000,,2013-02-15 01:52:00,
2013-02-14 21:01:00,61.0,57.0,-100.00,NE,41,9.0,17.0,88,0.00,,,1.86,0.000000,,2013-02-15 02:01:00,
2013-02-14 21:11:00,61.0,57.0,-100.00,NE,41,9.0,17.0,88,0.00,,,1.86,0.000000,,2013-02-15 02:11:00,
2013-02-14 21:32:00,62.0,58.0,-100.00,NE,46,8.0,18.0,87,0.00,,,1.86,0.000000,,2013-02-15 02:32:00,
2013-02-14 21:42:00,62.0,58.0,-100.00,NE,46,8.0,18.0,87,0.00,,,1.86,0.000000,,2013-02-15 02:42:00,
2013-02-14 21:52:00,62.0,58.0,-100.00,NE,46,8.0,18.0,87,0.00,,,1.86,0.000000,,2013-02-15 02:52:00,
2013-02-14 22:02:00,62.0,58.0,-100.00,NE,46,8.0,18.0,87,0.00,,,1.86,0.000000,,2013-02-15 03:02:00,
2013-02-14 22:11:00,62.0,58.0,-100.00,NE,46,8.0,18.0,87,0.00,,,1.86,0.000000,,2013-02-15 03:11:00,
2013-02-14 22:42:00,61.0,56.0,-100.00,NE,50,7.0,16.0,85,0.00,,,1.86,0.000000,,2013-02-15 03:42:00,
2013-02-14 22:52:00,61.0,56.0,-100.00,NE,50,7.0,16.0,85,0.00,,,1.86,0.000000,,2013-02-15 03:52:00,
2013-02-14 23:02:00,61.0,56.0,-100.00,NE,50,7.0,16.0,85,0.00,,,1.86,0.000000,,2013-02-15 04:02:00,
2013-02-14 23:11:00,61.0,56.0,-100.00,NE,50,7.0,16.0,85,0.00,,,1.86,0.000000,,2013-02-15 04:11:00,
2013-02-14 23:42:00,62.0,57.0,-100.00,East,93,5.0,15.0,85,0.00,,,1.86,0.000000,,2013-02-15 04:42:00,
2013-02-14 23:52:00,62.0,57.0,-100.00,East,93,5.0,15.0,85,0.00,,,1.86,0.000000,,2013-02-15 04:52:00,